KMFE/MFE METAR and TAF weather

Enter ICAO airport designator
Station Type Date Time Source
KMFE METAR 2019/08/19 01:53 UTC NOAA

KMFE 190153Z 13021G26KT 10SM CLR 32/23 A2983 RMK AO2 PK WND 13026/0137 SLP099 T03170233


Station Type Date Time Source
KMFE Decoded METAR 2019/08/19 01:53 UTC NOAA

Station name not available
Aug 18, 2019 - 09:53 PM EDT / 2019.08.19 0153 UTC
Wind: from the SE (130 degrees) at 24 MPH (21 KT) gusting to 30 MPH (26 KT):0
Visibility: 10 mile(s):0
Sky conditions: clear
Temperature: 89.1 F (31.7 C)
Heat index: 98.1 F (36.7 C):1
Dew Point: 73.9 F (23.3 C)
Relative Humidity: 61%
Pressure (altimeter): 29.83 in. Hg (1010 hPa)
ob: KMFE 190153Z 13021G26KT 10SM CLR 32/23 A2983 RMK AO2 PK WND 13026/0137 SLP099 T03170233
cycle: 2

Station Type Date Time Source
KMFE TAF 2019/08/18 18:22 UTC NOAA

TAF KMFE 181720Z 1818/1918 15015G21KT P6SM FEW045
FM190600 14010KT P6SM SCT030
FM191500 14015KT P6SM FEW040

Example: see airport list